METAR Data
IDs: Format: Raw Decoded Include TAF

Data at: 1947 UTC 13 Nov 2019

METAR for:KICL (Clarinda/Schenck Fld, IA, US)
Text:KICL 131935Z AUTO 25010G16KT 10SM CLR 02/M06 A2999 RMK AO2
Temperature: 2.0°C ( 36°F)
Dewpoint: -6.0°C ( 21°F) [RH = 55%]
Pressure (altimeter):29.99 inches Hg (1015.7 mb)
Winds:from the WSW (250 degrees) at 12 MPH (10 knots; 5.1 m/s) gusting to 18 MPH (16 knots; 8.2 m/s)
Visibility:10 or more sm (16+ km)
Ceiling:at least 12,000 feet AGL
Clouds:sky clear below 12,000 feet AGL
QC Flag:automated observation with no human augmentation